ROMMA est une association bénévole à but non lucratif. Votre soutien est indispensable : ADHERER à ROMMA ou FAIRE un DON

Crempigny-Bonneguête - (74, Haute-Savoie)

Albanais-Montagne des Princes (500 m)   Longitude: 05° 54' 5" E   Latitude: 45° 57' 0" N Station partenaire n°10
 

Détail journalier du     <<     >>

Température Precipitation Humidité Pression Vent Dir Rafale Dir. rafale Ensol. 20 cm au dessus du sol
Heure (°C) (mm) (%) (hPa) (km/h) (km/h) (min) (°C)
01:00 13.505610122NNO6N012.2
02:00 12.406010122NO5NNO011.1
03:00 12.106210111NNO5NNO010.6
04:00 11.406310102NNO10NNO011.1
05:00 14.505310099NO19ONO013.3
06:00 12.406410084NO16N011.1
07:00 13.805510084NO11NNO012.2
08:00 14.305410076NNE18NNO2013.9
09:00 15.605410078NNE26NNE1015.0
10:00 15.3053100610NNE24N015.6
11:00 16.605310069N23NNO016.7
12:00 18.1048100510NNE24N518.9
13:00 19.9046100410NNE23NE2021.1
14:00 21.3044100310N21NE6022.8
15:00 22.203610029NO21NO6023.3
16:00 22.903510019NO19NNE6024.4
17:00 23.003910007NNE18ENE4523.3
18:00 21.303810008NNE21NNE020.6
19:00 20.60399996NNE13N019.4
20:00 19.70389996NNE18NNE017.8
21:00 18.60429993NNO10NNE016.7
22:00 17.80429992NNO6ENE015.6
23:00 16.90419993N6NO014.4
minuit 16.10439992NNO5NO014.4

Graphique du 22-04-2019

 

Serveur OMMA